sensor_id;sensor_type;location;lat;lon;timestamp;P1;durP1;ratioP1;P2;durP2;ratioP2
41514;SDS011;27247;48.020;16.720;2023-05-07T00:00:28;10.48;;;6.53;;
41514;SDS011;27247;48.020;16.720;2023-05-07T00:04:38;7.32;;;5.88;;
41514;SDS011;27247;48.020;16.720;2023-05-07T00:08:48;7.97;;;6.27;;
41514;SDS011;27247;48.020;16.720;2023-05-07T00:12:59;8.07;;;6.03;;
41514;SDS011;27247;48.020;16.720;2023-05-07T00:17:10;8.18;;;6.03;;
41514;SDS011;27247;48.020;16.720;2023-05-07T00:21:20;7.53;;;6.30;;
41514;SDS011;27247;48.020;16.720;2023-05-07T00:25:31;8.07;;;6.35;;
41514;SDS011;27247;48.020;16.720;2023-05-07T00:29:41;7.10;;;6.37;;
41514;SDS011;27247;48.020;16.720;2023-05-07T00:33:52;8.87;;;7.20;;
41514;SDS011;27247;48.020;16.720;2023-05-07T00:38:02;8.83;;;6.70;;
41514;SDS011;27247;48.020;16.720;2023-05-07T00:42:12;7.18;;;6.38;;
41514;SDS011;27247;48.020;16.720;2023-05-07T00:46:24;9.88;;;6.60;;
41514;SDS011;27247;48.020;16.720;2023-05-07T00:50:35;7.45;;;6.65;;
41514;SDS011;27247;48.020;16.720;2023-05-07T00:54:46;8.65;;;5.93;;
41514;SDS011;27247;48.020;16.720;2023-05-07T00:58:56;7.00;;;5.88;;
41514;SDS011;27247;48.020;16.720;2023-05-07T01:03:07;8.90;;;6.78;;
41514;SDS011;27247;48.020;16.720;2023-05-07T01:07:17;11.57;;;6.15;;
41514;SDS011;27247;48.020;16.720;2023-05-07T01:11:28;7.05;;;5.65;;
41514;SDS011;27247;48.020;16.720;2023-05-07T01:15:38;7.60;;;5.28;;
41514;SDS011;27247;48.020;16.720;2023-05-07T01:19:51;6.80;;;5.40;;
41514;SDS011;27247;48.020;16.720;2023-05-07T01:24:03;8.40;;;5.38;;
41514;SDS011;27247;48.020;16.720;2023-05-07T01:28:14;7.28;;;5.57;;
41514;SDS011;27247;48.020;16.720;2023-05-07T01:32:48;7.60;;;6.43;;
41514;SDS011;27247;48.020;16.720;2023-05-07T01:37:01;12.73;;;8.68;;
41514;SDS011;27247;48.020;16.720;2023-05-07T01:41:12;10.32;;;7.50;;
41514;SDS011;27247;48.020;16.720;2023-05-07T01:45:23;11.50;;;8.40;;
41514;SDS011;27247;48.020;16.720;2023-05-07T01:49:34;10.73;;;8.55;;
41514;SDS011;27247;48.020;16.720;2023-05-07T01:53:45;13.02;;;9.13;;
41514;SDS011;27247;48.020;16.720;2023-05-07T01:57:57;12.20;;;8.68;;
41514;SDS011;27247;48.020;16.720;2023-05-07T02:02:08;12.07;;;9.05;;
41514;SDS011;27247;48.020;16.720;2023-05-07T02:06:18;14.13;;;9.80;;
41514;SDS011;27247;48.020;16.720;2023-05-07T02:10:29;10.35;;;8.25;;
41514;SDS011;27247;48.020;16.720;2023-05-07T02:14:39;12.37;;;9.13;;
41514;SDS011;27247;48.020;16.720;2023-05-07T02:18:49;11.77;;;9.53;;
41514;SDS011;27247;48.020;16.720;2023-05-07T02:23:00;11.27;;;9.05;;
41514;SDS011;27247;48.020;16.720;2023-05-07T02:27:10;10.30;;;8.88;;
41514;SDS011;27247;48.020;16.720;2023-05-07T02:31:21;11.63;;;9.20;;
41514;SDS011;27247;48.020;16.720;2023-05-07T02:35:31;12.17;;;9.43;;
41514;SDS011;27247;48.020;16.720;2023-05-07T02:39:41;10.30;;;8.23;;
41514;SDS011;27247;48.020;16.720;2023-05-07T02:43:52;10.67;;;9.23;;
41514;SDS011;27247;48.020;16.720;2023-05-07T02:48:02;12.23;;;9.07;;
41514;SDS011;27247;48.020;16.720;2023-05-07T02:52:13;10.35;;;8.27;;
41514;SDS011;27247;48.020;16.720;2023-05-07T02:56:25;9.45;;;7.28;;
41514;SDS011;27247;48.020;16.720;2023-05-07T03:00:36;9.32;;;8.32;;
41514;SDS011;27247;48.020;16.720;2023-05-07T03:04:46;8.38;;;6.63;;
41514;SDS011;27247;48.020;16.720;2023-05-07T03:08:57;16.27;;;7.87;;
41514;SDS011;27247;48.020;16.720;2023-05-07T03:13:07;8.63;;;7.70;;
41514;SDS011;27247;48.020;16.720;2023-05-07T03:17:17;9.15;;;8.10;;
41514;SDS011;27247;48.020;16.720;2023-05-07T03:21:27;10.77;;;9.13;;
41514;SDS011;27247;48.020;16.720;2023-05-07T03:25:38;15.90;;;10.30;;
41514;SDS011;27247;48.020;16.720;2023-05-07T03:29:48;10.87;;;8.77;;
41514;SDS011;27247;48.020;16.720;2023-05-07T03:33:58;10.70;;;8.83;;
41514;SDS011;27247;48.020;16.720;2023-05-07T03:38:09;9.75;;;8.40;;
41514;SDS011;27247;48.020;16.720;2023-05-07T03:42:19;8.18;;;7.32;;
41514;SDS011;27247;48.020;16.720;2023-05-07T03:46:30;9.35;;;8.10;;
41514;SDS011;27247;48.020;16.720;2023-05-07T03:50:42;10.05;;;8.50;;
41514;SDS011;27247;48.020;16.720;2023-05-07T03:54:53;13.30;;;8.77;;
41514;SDS011;27247;48.020;16.720;2023-05-07T03:59:03;9.48;;;8.20;;
41514;SDS011;27247;48.020;16.720;2023-05-07T04:03:14;9.75;;;8.73;;
41514;SDS011;27247;48.020;16.720;2023-05-07T04:07:24;9.60;;;8.40;;
41514;SDS011;27247;48.020;16.720;2023-05-07T04:11:35;12.23;;;8.90;;
41514;SDS011;27247;48.020;16.720;2023-05-07T04:15:46;10.65;;;9.55;;
41514;SDS011;27247;48.020;16.720;2023-05-07T04:19:56;11.18;;;9.40;;
41514;SDS011;27247;48.020;16.720;2023-05-07T04:24:06;15.43;;;12.63;;
41514;SDS011;27247;48.020;16.720;2023-05-07T04:28:17;12.60;;;10.85;;
41514;SDS011;27247;48.020;16.720;2023-05-07T04:32:28;11.13;;;9.02;;
41514;SDS011;27247;48.020;16.720;2023-05-07T04:36:39;12.77;;;9.82;;
41514;SDS011;27247;48.020;16.720;2023-05-07T04:40:49;14.40;;;10.13;;
41514;SDS011;27247;48.020;16.720;2023-05-07T04:45:00;13.57;;;10.65;;
41514;SDS011;27247;48.020;16.720;2023-05-07T04:49:11;14.45;;;10.88;;
41514;SDS011;27247;48.020;16.720;2023-05-07T04:53:21;18.00;;;12.98;;
41514;SDS011;27247;48.020;16.720;2023-05-07T04:57:32;21.90;;;15.57;;
41514;SDS011;27247;48.020;16.720;2023-05-07T05:01:43;18.98;;;14.90;;
41514;SDS011;27247;48.020;16.720;2023-05-07T05:05:53;24.23;;;15.82;;
41514;SDS011;27247;48.020;16.720;2023-05-07T05:10:04;24.65;;;16.90;;
41514;SDS011;27247;48.020;16.720;2023-05-07T05:14:15;27.55;;;19.13;;
41514;SDS011;27247;48.020;16.720;2023-05-07T05:18:26;30.53;;;20.50;;
41514;SDS011;27247;48.020;16.720;2023-05-07T05:22:36;35.93;;;24.13;;
41514;SDS011;27247;48.020;16.720;2023-05-07T05:26:46;42.05;;;27.25;;
41514;SDS011;27247;48.020;16.720;2023-05-07T05:30:56;35.77;;;22.57;;
41514;SDS011;27247;48.020;16.720;2023-05-07T05:35:07;34.90;;;22.77;;
41514;SDS011;27247;48.020;16.720;2023-05-07T05:39:18;31.90;;;22.73;;
41514;SDS011;27247;48.020;16.720;2023-05-07T05:43:28;34.25;;;23.15;;
41514;SDS011;27247;48.020;16.720;2023-05-07T05:47:39;33.95;;;22.35;;
41514;SDS011;27247;48.020;16.720;2023-05-07T05:51:49;44.10;;;27.55;;
41514;SDS011;27247;48.020;16.720;2023-05-07T05:56:00;49.90;;;30.92;;
41514;SDS011;27247;48.020;16.720;2023-05-07T06:00:10;51.92;;;31.85;;
41514;SDS011;27247;48.020;16.720;2023-05-07T06:04:21;51.88;;;32.83;;
41514;SDS011;27247;48.020;16.720;2023-05-07T06:08:31;52.10;;;32.07;;
41514;SDS011;27247;48.020;16.720;2023-05-07T06:12:42;47.13;;;32.33;;
41514;SDS011;27247;48.020;16.720;2023-05-07T06:16:52;55.15;;;34.45;;
41514;SDS011;27247;48.020;16.720;2023-05-07T06:21:02;55.22;;;33.85;;
41514;SDS011;27247;48.020;16.720;2023-05-07T06:25:13;49.80;;;32.58;;
41514;SDS011;27247;48.020;16.720;2023-05-07T06:29:24;52.75;;;35.28;;
41514;SDS011;27247;48.020;16.720;2023-05-07T06:33:40;56.15;;;35.83;;
41514;SDS011;27247;48.020;16.720;2023-05-07T06:37:50;54.20;;;34.80;;
41514;SDS011;27247;48.020;16.720;2023-05-07T06:42:01;53.40;;;35.43;;
41514;SDS011;27247;48.020;16.720;2023-05-07T06:46:14;55.10;;;35.75;;
41514;SDS011;27247;48.020;16.720;2023-05-07T06:50:25;52.15;;;34.78;;
41514;SDS011;27247;48.020;16.720;2023-05-07T06:54:36;47.85;;;32.40;;
41514;SDS011;27247;48.020;16.720;2023-05-07T06:58:47;52.63;;;33.75;;
41514;SDS011;27247;48.020;16.720;2023-05-07T07:02:57;48.90;;;33.43;;
41514;SDS011;27247;48.020;16.720;2023-05-07T07:07:07;49.83;;;32.27;;
41514;SDS011;27247;48.020;16.720;2023-05-07T07:11:18;45.60;;;31.80;;
41514;SDS011;27247;48.020;16.720;2023-05-07T07:15:28;46.53;;;31.52;;
41514;SDS011;27247;48.020;16.720;2023-05-07T07:19:38;47.28;;;29.88;;
41514;SDS011;27247;48.020;16.720;2023-05-07T07:23:49;45.00;;;31.40;;
41514;SDS011;27247;48.020;16.720;2023-05-07T07:27:59;46.33;;;33.00;;
41514;SDS011;27247;48.020;16.720;2023-05-07T07:32:10;41.40;;;28.70;;
41514;SDS011;27247;48.020;16.720;2023-05-07T07:36:20;46.70;;;30.77;;
41514;SDS011;27247;48.020;16.720;2023-05-07T07:40:30;44.50;;;29.23;;
41514;SDS011;27247;48.020;16.720;2023-05-07T07:44:41;46.53;;;27.98;;
41514;SDS011;27247;48.020;16.720;2023-05-07T07:48:51;43.22;;;29.92;;
41514;SDS011;27247;48.020;16.720;2023-05-07T07:53:02;39.80;;;28.50;;
41514;SDS011;27247;48.020;16.720;2023-05-07T07:57:12;42.60;;;30.93;;
41514;SDS011;27247;48.020;16.720;2023-05-07T08:01:24;42.70;;;29.03;;
41514;SDS011;27247;48.020;16.720;2023-05-07T08:05:58;38.55;;;26.92;;
41514;SDS011;27247;48.020;16.720;2023-05-07T08:10:08;33.35;;;24.88;;
41514;SDS011;27247;48.020;16.720;2023-05-07T08:14:19;33.20;;;23.85;;
41514;SDS011;27247;48.020;16.720;2023-05-07T08:18:29;31.27;;;22.40;;
41514;SDS011;27247;48.020;16.720;2023-05-07T08:22:40;32.28;;;24.38;;
41514;SDS011;27247;48.020;16.720;2023-05-07T08:26:50;33.78;;;22.95;;
41514;SDS011;27247;48.020;16.720;2023-05-07T08:31:01;31.60;;;23.60;;
41514;SDS011;27247;48.020;16.720;2023-05-07T08:35:11;31.90;;;21.83;;
41514;SDS011;27247;48.020;16.720;2023-05-07T08:39:21;30.50;;;20.65;;
41514;SDS011;27247;48.020;16.720;2023-05-07T08:43:32;31.30;;;22.10;;
41514;SDS011;27247;48.020;16.720;2023-05-07T08:47:43;29.27;;;18.63;;
41514;SDS011;27247;48.020;16.720;2023-05-07T08:51:56;30.23;;;20.98;;
41514;SDS011;27247;48.020;16.720;2023-05-07T08:56:08;25.08;;;19.08;;
41514;SDS011;27247;48.020;16.720;2023-05-07T09:00:18;24.35;;;17.60;;
41514;SDS011;27247;48.020;16.720;2023-05-07T09:04:28;24.33;;;17.80;;
41514;SDS011;27247;48.020;16.720;2023-05-07T09:08:52;23.50;;;17.83;;
41514;SDS011;27247;48.020;16.720;2023-05-07T09:13:04;29.60;;;17.92;;
41514;SDS011;27247;48.020;16.720;2023-05-07T09:17:17;27.55;;;18.92;;
41514;SDS011;27247;48.020;16.720;2023-05-07T09:21:28;21.80;;;16.33;;
41514;SDS011;27247;48.020;16.720;2023-05-07T09:25:38;22.23;;;17.40;;
41514;SDS011;27247;48.020;16.720;2023-05-07T09:29:49;22.77;;;16.65;;
41514;SDS011;27247;48.020;16.720;2023-05-07T09:34:00;16.98;;;12.15;;
41514;SDS011;27247;48.020;16.720;2023-05-07T09:38:10;19.02;;;13.10;;
41514;SDS011;27247;48.020;16.720;2023-05-07T09:42:23;21.50;;;15.23;;
41514;SDS011;27247;48.020;16.720;2023-05-07T09:46:34;22.60;;;15.65;;
41514;SDS011;27247;48.020;16.720;2023-05-07T09:50:48;22.95;;;17.15;;
41514;SDS011;27247;48.020;16.720;2023-05-07T09:55:01;20.17;;;15.05;;
41514;SDS011;27247;48.020;16.720;2023-05-07T09:59:12;17.63;;;13.15;;
41514;SDS011;27247;48.020;16.720;2023-05-07T10:03:25;22.38;;;15.95;;
41514;SDS011;27247;48.020;16.720;2023-05-07T10:07:38;20.60;;;15.85;;
41514;SDS011;27247;48.020;16.720;2023-05-07T10:11:49;19.58;;;14.45;;
41514;SDS011;27247;48.020;16.720;2023-05-07T10:16:00;20.23;;;14.95;;
41514;SDS011;27247;48.020;16.720;2023-05-07T10:20:10;19.33;;;14.45;;
41514;SDS011;27247;48.020;16.720;2023-05-07T10:24:25;21.50;;;14.88;;
41514;SDS011;27247;48.020;16.720;2023-05-07T10:28:42;14.90;;;11.95;;
41514;SDS011;27247;48.020;16.720;2023-05-07T10:32:55;20.13;;;14.57;;
41514;SDS011;27247;48.020;16.720;2023-05-07T10:37:15;16.92;;;13.70;;
41514;SDS011;27247;48.020;16.720;2023-05-07T10:41:26;16.60;;;12.82;;
41514;SDS011;27247;48.020;16.720;2023-05-07T10:45:37;19.30;;;15.20;;
41514;SDS011;27247;48.020;16.720;2023-05-07T10:58:27;21.48;;;14.38;;
41514;SDS011;27247;48.020;16.720;2023-05-07T11:16:13;14.48;;;12.10;;
41514;SDS011;27247;48.020;16.720;2023-05-07T11:25:03;15.57;;;13.10;;
41514;SDS011;27247;48.020;16.720;2023-05-07T11:29:17;15.48;;;10.27;;
41514;SDS011;27247;48.020;16.720;2023-05-07T11:33:30;15.40;;;11.55;;
41514;SDS011;27247;48.020;16.720;2023-05-07T11:37:40;12.75;;;10.57;;
41514;SDS011;27247;48.020;16.720;2023-05-07T11:41:52;13.05;;;10.20;;
41514;SDS011;27247;48.020;16.720;2023-05-07T11:46:09;12.27;;;10.47;;
41514;SDS011;27247;48.020;16.720;2023-05-07T11:50:20;15.95;;;11.45;;
41514;SDS011;27247;48.020;16.720;2023-05-07T11:54:35;13.45;;;8.70;;
41514;SDS011;27247;48.020;16.720;2023-05-07T11:58:47;12.10;;;9.73;;
41514;SDS011;27247;48.020;16.720;2023-05-07T12:03:02;12.55;;;9.60;;
41514;SDS011;27247;48.020;16.720;2023-05-07T12:07:14;15.93;;;10.23;;
41514;SDS011;27247;48.020;16.720;2023-05-07T12:11:25;10.65;;;8.70;;
41514;SDS011;27247;48.020;16.720;2023-05-07T12:15:35;11.65;;;8.43;;
41514;SDS011;27247;48.020;16.720;2023-05-07T12:19:46;11.57;;;9.40;;
41514;SDS011;27247;48.020;16.720;2023-05-07T12:23:57;11.20;;;8.25;;
41514;SDS011;27247;48.020;16.720;2023-05-07T12:28:07;12.80;;;9.00;;
41514;SDS011;27247;48.020;16.720;2023-05-07T12:32:19;12.50;;;9.18;;
41514;SDS011;27247;48.020;16.720;2023-05-07T12:36:40;11.48;;;8.57;;
41514;SDS011;27247;48.020;16.720;2023-05-07T12:40:53;14.57;;;8.63;;
41514;SDS011;27247;48.020;16.720;2023-05-07T12:45:11;11.40;;;8.60;;
41514;SDS011;27247;48.020;16.720;2023-05-07T12:49:22;9.63;;;7.68;;
41514;SDS011;27247;48.020;16.720;2023-05-07T12:53:33;9.77;;;7.10;;
41514;SDS011;27247;48.020;16.720;2023-05-07T12:57:50;8.65;;;7.20;;
41514;SDS011;27247;48.020;16.720;2023-05-07T13:02:01;8.52;;;6.30;;
41514;SDS011;27247;48.020;16.720;2023-05-07T13:06:12;7.88;;;6.13;;
41514;SDS011;27247;48.020;16.720;2023-05-07T13:10:23;8.35;;;6.45;;
41514;SDS011;27247;48.020;16.720;2023-05-07T13:14:33;9.48;;;5.68;;
41514;SDS011;27247;48.020;16.720;2023-05-07T13:18:44;7.07;;;6.10;;
41514;SDS011;27247;48.020;16.720;2023-05-07T13:22:55;8.05;;;4.90;;
41514;SDS011;27247;48.020;16.720;2023-05-07T13:27:05;10.27;;;4.43;;
41514;SDS011;27247;48.020;16.720;2023-05-07T13:31:16;8.55;;;5.10;;
41514;SDS011;27247;48.020;16.720;2023-05-07T13:35:27;6.15;;;5.07;;
41514;SDS011;27247;48.020;16.720;2023-05-07T13:39:38;7.55;;;4.82;;
41514;SDS011;27247;48.020;16.720;2023-05-07T13:43:49;7.80;;;5.53;;
41514;SDS011;27247;48.020;16.720;2023-05-07T13:47:59;5.47;;;4.45;;
41514;SDS011;27247;48.020;16.720;2023-05-07T13:52:10;6.20;;;4.95;;
41514;SDS011;27247;48.020;16.720;2023-05-07T13:56:21;6.97;;;5.35;;
41514;SDS011;27247;48.020;16.720;2023-05-07T14:00:31;7.20;;;5.05;;
41514;SDS011;27247;48.020;16.720;2023-05-07T14:04:41;5.97;;;4.50;;
41514;SDS011;27247;48.020;16.720;2023-05-07T14:08:52;7.45;;;4.47;;
41514;SDS011;27247;48.020;16.720;2023-05-07T14:13:04;7.60;;;4.63;;
41514;SDS011;27247;48.020;16.720;2023-05-07T14:17:14;4.65;;;4.15;;
41514;SDS011;27247;48.020;16.720;2023-05-07T14:21:24;5.68;;;4.72;;
41514;SDS011;27247;48.020;16.720;2023-05-07T14:25:35;5.30;;;4.80;;
41514;SDS011;27247;48.020;16.720;2023-05-07T14:29:45;6.83;;;4.30;;
41514;SDS011;27247;48.020;16.720;2023-05-07T14:34:00;7.82;;;4.43;;
41514;SDS011;27247;48.020;16.720;2023-05-07T14:38:11;4.82;;;3.40;;
41514;SDS011;27247;48.020;16.720;2023-05-07T14:42:21;5.03;;;4.10;;
41514;SDS011;27247;48.020;16.720;2023-05-07T14:46:31;5.00;;;3.70;;
41514;SDS011;27247;48.020;16.720;2023-05-07T14:50:42;3.80;;;3.50;;
41514;SDS011;27247;48.020;16.720;2023-05-07T14:54:52;4.07;;;3.17;;
41514;SDS011;27247;48.020;16.720;2023-05-07T14:59:03;5.60;;;3.70;;
41514;SDS011;27247;48.020;16.720;2023-05-07T15:03:13;6.43;;;3.58;;
41514;SDS011;27247;48.020;16.720;2023-05-07T15:07:24;5.88;;;5.07;;
41514;SDS011;27247;48.020;16.720;2023-05-07T15:11:34;4.15;;;3.75;;
41514;SDS011;27247;48.020;16.720;2023-05-07T15:15:45;4.68;;;4.28;;
41514;SDS011;27247;48.020;16.720;2023-05-07T15:19:55;6.13;;;3.72;;
41514;SDS011;27247;48.020;16.720;2023-05-07T15:24:06;4.30;;;3.90;;
41514;SDS011;27247;48.020;16.720;2023-05-07T15:28:16;9.50;;;5.47;;
41514;SDS011;27247;48.020;16.720;2023-05-07T15:32:27;4.53;;;4.13;;
41514;SDS011;27247;48.020;16.720;2023-05-07T15:36:37;5.53;;;4.17;;
41514;SDS011;27247;48.020;16.720;2023-05-07T15:40:47;4.30;;;3.77;;
41514;SDS011;27247;48.020;16.720;2023-05-07T15:44:58;9.38;;;6.55;;
41514;SDS011;27247;48.020;16.720;2023-05-07T15:49:10;5.82;;;3.67;;
41514;SDS011;27247;48.020;16.720;2023-05-07T15:53:20;7.28;;;6.03;;
41514;SDS011;27247;48.020;16.720;2023-05-07T15:57:31;7.05;;;6.30;;
41514;SDS011;27247;48.020;16.720;2023-05-07T16:01:41;5.28;;;4.55;;
41514;SDS011;27247;48.020;16.720;2023-05-07T16:05:52;4.68;;;3.80;;
41514;SDS011;27247;48.020;16.720;2023-05-07T16:10:03;5.38;;;4.63;;
41514;SDS011;27247;48.020;16.720;2023-05-07T16:14:14;4.65;;;4.13;;
41514;SDS011;27247;48.020;16.720;2023-05-07T16:18:25;6.07;;;4.23;;
41514;SDS011;27247;48.020;16.720;2023-05-07T16:22:35;4.70;;;4.13;;
41514;SDS011;27247;48.020;16.720;2023-05-07T16:26:46;4.53;;;4.13;;
41514;SDS011;27247;48.020;16.720;2023-05-07T16:30:56;5.03;;;4.53;;
41514;SDS011;27247;48.020;16.720;2023-05-07T16:35:06;7.43;;;4.50;;
41514;SDS011;27247;48.020;16.720;2023-05-07T16:39:17;6.57;;;4.57;;
41514;SDS011;27247;48.020;16.720;2023-05-07T16:43:27;6.57;;;5.85;;
41514;SDS011;27247;48.020;16.720;2023-05-07T16:47:38;7.07;;;5.32;;
41514;SDS011;27247;48.020;16.720;2023-05-07T16:51:48;9.17;;;5.70;;
41514;SDS011;27247;48.020;16.720;2023-05-07T16:56:03;10.85;;;5.60;;
41514;SDS011;27247;48.020;16.720;2023-05-07T17:00:16;5.65;;;5.15;;
41514;SDS011;27247;48.020;16.720;2023-05-07T17:04:27;7.40;;;5.65;;
41514;SDS011;27247;48.020;16.720;2023-05-07T17:08:38;7.55;;;4.95;;
41514;SDS011;27247;48.020;16.720;2023-05-07T17:12:49;8.13;;;5.80;;
41514;SDS011;27247;48.020;16.720;2023-05-07T17:16:59;7.35;;;5.90;;
41514;SDS011;27247;48.020;16.720;2023-05-07T17:21:10;9.73;;;6.83;;
41514;SDS011;27247;48.020;16.720;2023-05-07T17:25:20;8.50;;;6.40;;
41514;SDS011;27247;48.020;16.720;2023-05-07T17:29:32;6.38;;;5.72;;
41514;SDS011;27247;48.020;16.720;2023-05-07T17:33:42;8.80;;;6.70;;
41514;SDS011;27247;48.020;16.720;2023-05-07T17:37:52;9.17;;;7.47;;
41514;SDS011;27247;48.020;16.720;2023-05-07T17:42:03;12.57;;;7.82;;
41514;SDS011;27247;48.020;16.720;2023-05-07T17:46:13;8.63;;;7.10;;
41514;SDS011;27247;48.020;16.720;2023-05-07T17:50:24;10.30;;;8.02;;
41514;SDS011;27247;48.020;16.720;2023-05-07T17:54:35;12.07;;;8.18;;
41514;SDS011;27247;48.020;16.720;2023-05-07T17:58:45;10.77;;;8.55;;
41514;SDS011;27247;48.020;16.720;2023-05-07T18:02:56;14.52;;;8.75;;
41514;SDS011;27247;48.020;16.720;2023-05-07T18:07:08;15.18;;;11.05;;
41514;SDS011;27247;48.020;16.720;2023-05-07T18:11:19;13.13;;;9.27;;
41514;SDS011;27247;48.020;16.720;2023-05-07T18:15:31;11.63;;;8.10;;
41514;SDS011;27247;48.020;16.720;2023-05-07T18:19:42;12.17;;;9.10;;
41514;SDS011;27247;48.020;16.720;2023-05-07T18:23:52;11.32;;;8.85;;
41514;SDS011;27247;48.020;16.720;2023-05-07T18:28:03;13.95;;;9.30;;
41514;SDS011;27247;48.020;16.720;2023-05-07T18:32:15;14.63;;;9.20;;
41514;SDS011;27247;48.020;16.720;2023-05-07T18:36:26;15.23;;;10.45;;
41514;SDS011;27247;48.020;16.720;2023-05-07T18:40:42;17.70;;;12.80;;
41514;SDS011;27247;48.020;16.720;2023-05-07T18:44:54;19.85;;;12.93;;
41514;SDS011;27247;48.020;16.720;2023-05-07T18:49:05;20.77;;;14.18;;
41514;SDS011;27247;48.020;16.720;2023-05-07T18:53:15;24.35;;;15.52;;
41514;SDS011;27247;48.020;16.720;2023-05-07T18:57:26;23.30;;;14.13;;
41514;SDS011;27247;48.020;16.720;2023-05-07T19:01:38;25.67;;;15.10;;
41514;SDS011;27247;48.020;16.720;2023-05-07T19:05:49;24.27;;;14.95;;
41514;SDS011;27247;48.020;16.720;2023-05-07T19:09:59;27.20;;;16.73;;
41514;SDS011;27247;48.020;16.720;2023-05-07T19:14:10;27.33;;;17.55;;
41514;SDS011;27247;48.020;16.720;2023-05-07T19:18:20;29.48;;;16.95;;
41514;SDS011;27247;48.020;16.720;2023-05-07T19:22:30;27.90;;;17.30;;
41514;SDS011;27247;48.020;16.720;2023-05-07T19:26:41;26.95;;;17.98;;
41514;SDS011;27247;48.020;16.720;2023-05-07T19:30:51;29.25;;;18.10;;
41514;SDS011;27247;48.020;16.720;2023-05-07T19:35:02;30.08;;;17.10;;
41514;SDS011;27247;48.020;16.720;2023-05-07T19:39:13;28.10;;;18.50;;
41514;SDS011;27247;48.020;16.720;2023-05-07T19:43:23;27.85;;;18.98;;
41514;SDS011;27247;48.020;16.720;2023-05-07T19:47:34;29.13;;;19.13;;
41514;SDS011;27247;48.020;16.720;2023-05-07T19:51:44;30.27;;;19.10;;
41514;SDS011;27247;48.020;16.720;2023-05-07T19:56:28;34.15;;;20.83;;
41514;SDS011;27247;48.020;16.720;2023-05-07T20:00:31;33.88;;;19.85;;
41514;SDS011;27247;48.020;16.720;2023-05-07T20:04:42;30.83;;;18.52;;
41514;SDS011;27247;48.020;16.720;2023-05-07T20:08:53;35.83;;;19.73;;
41514;SDS011;27247;48.020;16.720;2023-05-07T20:13:03;31.02;;;18.35;;
41514;SDS011;27247;48.020;16.720;2023-05-07T20:17:14;32.75;;;18.98;;
41514;SDS011;27247;48.020;16.720;2023-05-07T20:21:24;31.35;;;19.88;;
41514;SDS011;27247;48.020;16.720;2023-05-07T20:25:35;34.90;;;20.80;;
41514;SDS011;27247;48.020;16.720;2023-05-07T20:29:46;33.28;;;20.50;;
41514;SDS011;27247;48.020;16.720;2023-05-07T20:33:57;30.13;;;19.55;;
41514;SDS011;27247;48.020;16.720;2023-05-07T20:38:07;33.88;;;20.77;;
41514;SDS011;27247;48.020;16.720;2023-05-07T20:42:17;40.60;;;23.08;;
41514;SDS011;27247;48.020;16.720;2023-05-07T20:46:28;40.10;;;23.10;;
41514;SDS011;27247;48.020;16.720;2023-05-07T20:50:39;40.05;;;23.10;;
41514;SDS011;27247;48.020;16.720;2023-05-07T20:54:49;38.33;;;22.50;;
41514;SDS011;27247;48.020;16.720;2023-05-07T20:58:59;34.33;;;20.50;;
41514;SDS011;27247;48.020;16.720;2023-05-07T21:03:10;29.58;;;19.58;;
41514;SDS011;27247;48.020;16.720;2023-05-07T21:07:20;30.67;;;19.20;;
41514;SDS011;27247;48.020;16.720;2023-05-07T21:11:30;30.90;;;18.87;;
41514;SDS011;27247;48.020;16.720;2023-05-07T21:15:41;29.17;;;18.77;;
41514;SDS011;27247;48.020;16.720;2023-05-07T21:19:51;26.90;;;17.77;;
41514;SDS011;27247;48.020;16.720;2023-05-07T21:24:02;28.58;;;18.50;;
41514;SDS011;27247;48.020;16.720;2023-05-07T21:28:13;26.58;;;17.52;;
41514;SDS011;27247;48.020;16.720;2023-05-07T21:32:23;26.90;;;18.40;;
41514;SDS011;27247;48.020;16.720;2023-05-07T21:36:33;27.00;;;17.15;;
41514;SDS011;27247;48.020;16.720;2023-05-07T21:40:44;26.70;;;16.10;;
41514;SDS011;27247;48.020;16.720;2023-05-07T21:44:54;26.65;;;17.05;;
41514;SDS011;27247;48.020;16.720;2023-05-07T21:49:05;24.98;;;16.38;;
41514;SDS011;27247;48.020;16.720;2023-05-07T21:53:15;22.93;;;15.30;;
41514;SDS011;27247;48.020;16.720;2023-05-07T21:57:25;23.70;;;16.53;;
41514;SDS011;27247;48.020;16.720;2023-05-07T22:01:35;21.60;;;14.67;;
41514;SDS011;27247;48.020;16.720;2023-05-07T22:05:46;23.03;;;16.07;;
41514;SDS011;27247;48.020;16.720;2023-05-07T22:09:56;22.42;;;14.68;;
41514;SDS011;27247;48.020;16.720;2023-05-07T22:14:06;24.70;;;15.70;;
41514;SDS011;27247;48.020;16.720;2023-05-07T22:18:17;20.70;;;14.30;;
41514;SDS011;27247;48.020;16.720;2023-05-07T22:22:27;21.37;;;14.97;;
41514;SDS011;27247;48.020;16.720;2023-05-07T22:26:37;25.48;;;14.95;;
41514;SDS011;27247;48.020;16.720;2023-05-07T22:30:49;20.65;;;14.25;;
41514;SDS011;27247;48.020;16.720;2023-05-07T22:35:00;23.45;;;13.95;;
41514;SDS011;27247;48.020;16.720;2023-05-07T22:39:10;18.65;;;13.43;;
41514;SDS011;27247;48.020;16.720;2023-05-07T22:43:21;20.58;;;13.05;;
41514;SDS011;27247;48.020;16.720;2023-05-07T22:47:31;17.33;;;12.83;;
41514;SDS011;27247;48.020;16.720;2023-05-07T22:51:41;18.45;;;13.02;;
41514;SDS011;27247;48.020;16.720;2023-05-07T22:55:52;16.10;;;12.18;;
41514;SDS011;27247;48.020;16.720;2023-05-07T23:00:02;17.98;;;12.65;;
41514;SDS011;27247;48.020;16.720;2023-05-07T23:04:14;20.73;;;12.63;;
41514;SDS011;27247;48.020;16.720;2023-05-07T23:08:24;17.33;;;12.60;;
41514;SDS011;27247;48.020;16.720;2023-05-07T23:12:34;19.53;;;11.83;;
41514;SDS011;27247;48.020;16.720;2023-05-07T23:16:45;17.90;;;10.77;;
41514;SDS011;27247;48.020;16.720;2023-05-07T23:20:56;16.92;;;11.85;;
41514;SDS011;27247;48.020;16.720;2023-05-07T23:25:07;16.88;;;11.02;;
41514;SDS011;27247;48.020;16.720;2023-05-07T23:29:18;16.58;;;11.85;;
41514;SDS011;27247;48.020;16.720;2023-05-07T23:33:28;16.87;;;12.53;;
41514;SDS011;27247;48.020;16.720;2023-05-07T23:37:38;15.93;;;11.47;;
41514;SDS011;27247;48.020;16.720;2023-05-07T23:41:49;16.13;;;12.18;;
41514;SDS011;27247;48.020;16.720;2023-05-07T23:45:59;18.87;;;11.03;;
41514;SDS011;27247;48.020;16.720;2023-05-07T23:50:10;18.80;;;11.57;;
41514;SDS011;27247;48.020;16.720;2023-05-07T23:54:20;16.52;;;12.60;;
41514;SDS011;27247;48.020;16.720;2023-05-07T23:58:30;16.50;;;12.13;;
